Time;durP1;ratioP1;P1;durP2;ratioP2;P2;SDS_P1;SDS_P2;PMS_P1;PMS_P2;Temp;Humidity;BMP_temperature;BMP_pressure;BME280_temperature;BME280_humidity;BME280_pressure;Samples;Min_cycle;Max_cycle;Signal;HPM_P1;HPM_P2
2022/07/30 00:00:12;;;;;;;;;;;;;;;-143.90;100.00;55059.59;3052133;19;20372;-61
2022/07/30 00:01:12;;;;;;;;;;;;;;;-143.90;100.00;55095.34;3049439;19;19927;-60
2022/07/30 00:02:15;;;;;;;;;;;;;;;-143.90;100.00;55073.50;3047506;19;19915;-60
2022/07/30 00:03:16;;;;;;;;;;;;;;;-143.90;100.00;55121.16;3052005;19;20699;-60
2022/07/30 00:04:17;;;;;;;;;;;;;;;-143.90;100.00;55095.34;3048616;19;20002;-60
2022/07/30 00:05:17;;;;;;;;;;;;;;;-143.90;100.00;55069.53;3049687;19;19918;-59
2022/07/30 00:06:18;;;;;;;;;;;;;;;-143.90;100.00;55085.41;3053238;19;19919;-60
2022/07/30 00:07:19;;;;;;;;;;;;;;;-143.90;100.00;55095.34;3048386;19;19931;-61
2022/07/30 00:08:22;;;;;;;;;;;;;;;-143.90;100.00;55075.47;3051186;19;19915;-61
2022/07/30 00:09:23;;;;;;;;;;;;;;;-143.90;100.00;55075.47;3050428;19;20288;-60
2022/07/30 00:10:24;;;;;;;;;;;;;;;-143.90;100.00;55107.25;3050282;19;19923;-59
2022/07/30 00:11:25;;;;;;;;;;;;;;;-143.90;100.00;55063.56;3053076;19;19950;-60
2022/07/30 00:12:26;;;;;;;;;;;;;;;-143.90;100.00;55099.31;3050965;19;19919;-61
2022/07/30 00:13:27;;;;;;;;;;;;;;;-143.90;100.00;55067.53;3048077;19;19935;-61
2022/07/30 00:14:28;;;;;;;;;;;;;;;-143.90;100.00;55073.50;3051463;19;20284;-60
2022/07/30 00:15:28;;;;;;;;;;;;;;;-143.90;100.00;55087.41;3049760;19;20099;-61
2022/07/30 00:16:29;;;;;;;;;;;;;;;-143.90;100.00;55089.38;3052045;19;19947;-60
2022/07/30 00:17:30;;;;;;;;;;;;;;;-143.90;100.00;55059.59;3050232;19;20921;-60
2022/07/30 00:18:31;;;;;;;;;;;;;;;-143.90;100.00;55135.03;3048985;19;19911;-60
2022/07/30 00:19:32;;;;;;;;;;;;;;;-143.90;100.00;55075.47;3051742;19;20013;-60
2022/07/30 00:20:33;;;;;;;;;;;;;;;-143.90;100.00;55055.63;3051455;19;19957;-60
2022/07/30 00:21:34;;;;;;;;;;;;;;;-143.90;100.00;55083.41;3051158;19;19928;-60
2022/07/30 00:22:34;;;;;;;;;;;;;;;-143.90;100.00;55071.50;3051957;19;19922;-60
2022/07/30 00:23:35;;;;;;;;;;;;;;;-143.90;100.00;55077.47;3049694;19;19915;-60
2022/07/30 00:24:36;;;;;;;;;;;;;;;-143.90;100.00;55095.34;3051207;19;19919;-60
2022/07/30 00:25:37;;;;;;;;;;;;;;;-143.90;100.00;55071.50;3051375;19;20351;-60
2022/07/30 00:26:38;;;;;;;;;;;;;;;-143.90;100.00;55083.41;3050204;19;19942;-60
2022/07/30 00:27:38;;;;;;;;;;;;;;;-143.90;100.00;55073.50;3051268;19;19923;-60
2022/07/30 00:28:39;;;;;;;;;;;;;;;-143.90;100.00;55081.44;3049697;19;20758;-60
2022/07/30 00:29:40;;;;;;;;;;;;;;;-143.90;100.00;55087.41;3050756;19;19927;-60
2022/07/30 00:30:41;;;;;;;;;;;;;;;-143.90;100.00;55077.47;3049561;19;19919;-60
2022/07/30 00:31:42;;;;;;;;;;;;;;;-143.90;100.00;55099.31;3049392;19;19931;-61
2022/07/30 00:32:43;;;;;;;;;;;;;;;-143.90;100.00;55071.50;3050946;19;20656;-59
2022/07/30 00:33:44;;;;;;;;;;;;;;;-143.90;100.00;55087.41;3048964;19;20295;-61
2022/07/30 00:34:45;;;;;;;;;;;;;;;-143.90;100.00;55093.34;3049350;19;19919;-60
2022/07/30 00:35:46;;;;;;;;;;;;;;;-143.90;100.00;55097.31;3050957;19;19990;-60
2022/07/30 00:36:48;;;;;;;;;;;;;;;-143.90;100.00;55123.13;3048915;19;20367;-60
2022/07/30 00:37:48;;;;;;;;;;;;;;;-143.90;100.00;55103.28;3051375;19;20403;-60
2022/07/30 00:38:49;;;;;;;;;;;;;;;-143.90;100.00;55111.22;3049030;19;19922;-59
2022/07/30 00:39:50;;;;;;;;;;;;;;;-143.90;100.00;55081.44;3048842;19;19914;-59
2022/07/30 00:40:51;;;;;;;;;;;;;;;-143.90;100.00;55095.34;3050040;19;19963;-60
2022/07/30 00:41:56;;;;;;;;;;;;;;;-143.90;100.00;55093.34;3050557;19;19953;-59
2022/07/30 00:42:57;;;;;;;;;;;;;;;-143.90;100.00;55135.03;3048704;19;19933;-60
2022/07/30 00:43:58;;;;;;;;;;;;;;;-143.90;100.00;55095.34;3050265;19;19927;-59
2022/07/30 00:44:58;;;;;;;;;;;;;;;-143.90;100.00;55137.03;3050182;19;19927;-59
2022/07/30 00:45:59;;;;;;;;;;;;;;;-143.90;100.00;55075.47;3051035;19;19917;-59
2022/07/30 00:47:00;;;;;;;;;;;;;;;-143.90;100.00;55067.53;3049477;19;19954;-59
2022/07/30 00:48:01;;;;;;;;;;;;;;;-143.90;100.00;55099.31;3048568;19;19911;-60
2022/07/30 00:49:02;;;;;;;;;;;;;;;-143.90;100.00;55087.41;3050214;19;20638;-60
2022/07/30 00:50:04;;;;;;;;;;;;;;;-143.90;100.00;55087.41;3048431;19;19915;-60
2022/07/30 00:51:04;;;;;;;;;;;;;;;-143.90;100.00;55111.22;3051394;19;19931;-60
2022/07/30 00:52:05;;;;;;;;;;;;;;;-143.90;100.00;55091.38;3046593;19;19911;-60
2022/07/30 00:53:06;;;;;;;;;;;;;;;-143.90;100.00;55095.34;3050869;19;20275;-60
2022/07/30 00:54:07;;;;;;;;;;;;;;;-143.90;100.00;55095.34;3051148;19;19918;-60
2022/07/30 00:55:09;;;;;;;;;;;;;;;-143.90;100.00;55107.25;3051888;19;19943;-59
2022/07/30 00:56:09;;;;;;;;;;;;;;;-143.90;100.00;55083.41;3049338;19;19974;-60
2022/07/30 00:57:10;;;;;;;;;;;;;;;-143.90;100.00;55117.19;3050293;19;19967;-60
2022/07/30 00:58:11;;;;;;;;;;;;;;;-143.90;100.00;55081.44;3050660;19;19925;-60
2022/07/30 00:59:12;;;;;;;;;;;;;;;-143.90;100.00;55091.38;3048562;19;20653;-60
2022/07/30 01:00:14;;;;;;;;;;;;;;;-143.90;100.00;55083.41;3051087;19;19990;-60
2022/07/30 01:01:15;;;;;;;;;;;;;;;-143.90;100.00;55043.72;3051574;19;20343;-61
2022/07/30 01:02:16;;;;;;;;;;;;;;;-143.90;100.00;55067.53;3048740;19;20465;-60
2022/07/30 01:03:17;;;;;;;;;;;;;;;-143.90;100.00;55107.25;3050820;19;19925;-59
2022/07/30 01:04:18;;;;;;;;;;;;;;;-143.90;100.00;55095.34;3048010;19;20270;-60
2022/07/30 01:05:19;;;;;;;;;;;;;;;-143.90;100.00;55051.66;3048767;19;19915;-60
2022/07/30 01:06:20;;;;;;;;;;;;;;;-143.90;100.00;55107.25;3052121;19;19952;-60
2022/07/30 01:07:21;;;;;;;;;;;;;;;-143.90;100.00;55079.44;3049193;19;19997;-60
2022/07/30 01:08:21;;;;;;;;;;;;;;;-143.90;100.00;55113.22;3048874;19;20791;-60
2022/07/30 01:09:22;;;;;;;;;;;;;;;-143.90;100.00;55131.06;3046125;19;19918;-60
2022/07/30 01:10:23;;;;;;;;;;;;;;;-143.90;100.00;55121.16;3050567;19;19926;-60
2022/07/30 01:11:28;;;;;;;;;;;;;;;-143.90;100.00;55103.28;3050342;19;19923;-60
2022/07/30 01:12:28;;;;;;;;;;;;;;;-143.90;100.00;55053.63;3048003;19;19923;-60
2022/07/30 01:13:29;;;;;;;;;;;;;;;-143.90;100.00;55079.44;3050388;19;19926;-60
2022/07/30 01:14:30;;;;;;;;;;;;;;;-143.90;100.00;55111.22;3049281;19;20332;-60
2022/07/30 01:15:31;;;;;;;;;;;;;;;-143.90;100.00;55079.44;3050026;19;19950;-60
2022/07/30 01:16:32;;;;;;;;;;;;;;;-143.90;100.00;55067.53;3048006;19;19919;-60
2022/07/30 01:17:33;;;;;;;;;;;;;;;-143.90;100.00;55081.44;3048867;19;19922;-60
2022/07/30 01:19:57;;;;;;;;;;;;;;;-143.90;100.00;55055.63;3049617;19;20411;-60
2022/07/30 01:21:04;;;;;;;;;;;;;;;-143.90;100.00;55083.41;3048714;19;19937;-60
2022/07/30 01:22:23;;;;;;;;;;;;;;;-143.90;100.00;55079.44;3049106;19;19937;-60
2022/07/30 01:23:30;;;;;;;;;;;;;;;-143.90;100.00;55099.31;3048585;19;19927;-59
2022/07/30 01:24:42;;;;;;;;;;;;;;;-143.90;100.00;55127.09;3048458;19;19918;-59
2022/07/30 01:26:01;;;;;;;;;;;;;;;-143.90;100.00;55063.56;3048991;19;20011;-60
2022/07/30 01:27:02;;;;;;;;;;;;;;;-143.90;100.00;55093.34;3050197;19;19919;-61
2022/07/30 01:28:03;;;;;;;;;;;;;;;-143.90;100.00;55103.28;3050428;19;20654;-60
2022/07/30 01:29:04;;;;;;;;;;;;;;;-143.90;100.00;55089.38;3047946;19;19923;-60
2022/07/30 01:30:06;;;;;;;;;;;;;;;-143.90;100.00;55061.59;3050688;19;19923;-60
2022/07/30 01:31:06;;;;;;;;;;;;;;;-143.90;100.00;55091.38;3049183;19;19982;-59
2022/07/30 01:32:08;;;;;;;;;;;;;;;-143.90;100.00;55107.25;3047845;19;20000;-60
2022/07/30 01:33:11;;;;;;;;;;;;;;;-143.90;100.00;55135.03;3048871;19;20826;-60
2022/07/30 01:34:13;;;;;;;;;;;;;;;-143.90;100.00;55119.16;3049415;19;19936;-60
2022/07/30 01:35:14;;;;;;;;;;;;;;;-143.90;100.00;55107.25;3048537;19;20557;-60
2022/07/30 01:36:15;;;;;;;;;;;;;;;-143.90;100.00;55123.13;3049630;19;20655;-59
2022/07/30 01:37:16;;;;;;;;;;;;;;;-143.90;100.00;55071.50;3047412;19;19914;-60
2022/07/30 01:38:20;;;;;;;;;;;;;;;-143.90;100.00;55059.59;3047891;19;19934;-60
2022/07/30 01:39:21;;;;;;;;;;;;;;;-143.90;100.00;55139.03;3050159;19;20742;-60
2022/07/30 01:40:22;;;;;;;;;;;;;;;-143.90;100.00;55085.41;3047387;19;19914;-60
2022/07/30 01:41:23;;;;;;;;;;;;;;;-143.90;100.00;55107.25;3050034;19;19919;-60
2022/07/30 01:42:24;;;;;;;;;;;;;;;-143.90;100.00;55077.47;3045038;19;19936;-60
2022/07/30 01:43:25;;;;;;;;;;;;;;;-143.90;100.00;55127.09;3049571;19;19926;-59
2022/07/30 01:44:26;;;;;;;;;;;;;;;-143.90;100.00;55087.41;3046848;19;19954;-60
2022/07/30 01:45:27;;;;;;;;;;;;;;;-143.90;100.00;55111.22;3050361;19;19915;-60
2022/07/30 01:46:28;;;;;;;;;;;;;;;-143.90;100.00;55123.13;3046564;19;20316;-59
2022/07/30 01:47:29;;;;;;;;;;;;;;;-143.90;100.00;55123.13;3046415;19;19915;-59
2022/07/30 01:48:30;;;;;;;;;;;;;;;-143.90;100.00;55095.34;3050615;19;19919;-60
2022/07/30 01:49:31;;;;;;;;;;;;;;;-143.90;100.00;55095.34;3047843;19;19914;-60
2022/07/30 01:50:32;;;;;;;;;;;;;;;-143.90;100.00;55117.19;3049877;19;19955;-59
2022/07/30 01:51:33;;;;;;;;;;;;;;;-143.90;100.00;55107.25;3048192;19;19923;-60
2022/07/30 01:52:34;;;;;;;;;;;;;;;-143.90;100.00;55135.03;3046806;19;19927;-60
2022/07/30 01:53:36;;;;;;;;;;;;;;;-143.90;100.00;55107.25;3048494;19;19943;-60
2022/07/30 01:54:37;;;;;;;;;;;;;;;-143.90;100.00;55103.28;3048671;19;19915;-59
2022/07/30 01:55:39;;;;;;;;;;;;;;;-143.90;100.00;55109.22;3048144;19;20560;-60
2022/07/30 01:56:40;;;;;;;;;;;;;;;-143.90;100.00;55111.22;3048978;19;19927;-60
2022/07/30 01:57:40;;;;;;;;;;;;;;;-143.90;100.00;55095.34;3045026;19;19930;-60
2022/07/30 01:58:41;;;;;;;;;;;;;;;-143.90;100.00;55111.22;3042228;19;19979;-60
2022/07/30 01:59:54;;;;;;;;;;;;;;;-143.90;100.00;55079.44;3047330;19;20059;-60
2022/07/30 02:00:55;;;;;;;;;;;;;;;-143.90;100.00;55099.31;3047143;19;19919;-60
2022/07/30 02:01:56;;;;;;;;;;;;;;;-143.90;100.00;55111.22;3048661;19;20299;-60
2022/07/30 02:02:57;;;;;;;;;;;;;;;-143.90;100.00;55137.03;3049760;19;19919;-59
2022/07/30 02:03:58;;;;;;;;;;;;;;;-143.90;100.00;55117.19;3048352;19;19919;-60
2022/07/30 02:04:59;;;;;;;;;;;;;;;-143.90;100.00;55113.22;3046083;19;20473;-60
2022/07/30 02:06:00;;;;;;;;;;;;;;;-143.90;100.00;55123.13;3050250;19;20767;-59
2022/07/30 02:07:13;;;;;;;;;;;;;;;-143.90;100.00;55115.19;3046340;19;20298;-60
2022/07/30 02:08:27;;;;;;;;;;;;;;;-143.90;100.00;55119.16;3045804;19;19926;-59
2022/07/30 02:09:40;;;;;;;;;;;;;;;-143.90;100.00;55107.25;3048142;19;19982;-60
2022/07/30 02:10:48;;;;;;;;;;;;;;;-143.90;100.00;55111.22;3048343;19;19926;-59
2022/07/30 02:13:12;;;;;;;;;;;;;;;-143.90;100.00;55119.16;3045079;19;19927;-60
2022/07/30 02:14:16;;;;;;;;;;;;;;;-143.90;100.00;55131.06;3049436;19;20754;-60
2022/07/30 02:15:36;;;;;;;;;;;;;;;-143.90;100.00;55123.13;3048564;19;20370;-60
2022/07/30 02:16:38;;;;;;;;;;;;;;;-143.90;100.00;55057.59;3048362;19;19923;-60
2022/07/30 02:17:55;;;;;;;;;;;;;;;-143.90;100.00;55111.22;3048664;19;19923;-60
2022/07/30 02:19:09;;;;;;;;;;;;;;;-143.90;100.00;55129.09;3048613;19;20436;-60
2022/07/30 02:20:12;;;;;;;;;;;;;;;-143.90;100.00;55131.06;3048475;19;19942;-60
2022/07/30 02:21:13;;;;;;;;;;;;;;;-143.90;100.00;55131.06;3049842;19;19947;-59
2022/07/30 02:22:14;;;;;;;;;;;;;;;-143.90;100.00;55113.22;3048398;19;19915;-60
2022/07/30 02:23:14;;;;;;;;;;;;;;;-143.90;100.00;55103.28;3047263;19;19970;-60
2022/07/30 02:24:16;;;;;;;;;;;;;;;-143.90;100.00;55137.03;3047243;19;20026;-60
2022/07/30 02:25:18;;;;;;;;;;;;;;;-143.90;100.00;55144.97;3049433;19;19963;-60
2022/07/30 02:26:20;;;;;;;;;;;;;;;-143.90;100.00;55123.13;3046501;19;19926;-60
2022/07/30 02:27:22;;;;;;;;;;;;;;;-143.90;100.00;55150.94;3048789;19;20380;-60
2022/07/30 02:28:23;;;;;;;;;;;;;;;-143.90;100.00;55158.88;3050083;19;19983;-59
2022/07/30 02:29:24;;;;;;;;;;;;;;;-143.90;100.00;55131.06;3045759;19;19931;-60
2022/07/30 02:30:26;;;;;;;;;;;;;;;-143.90;100.00;55127.09;3049521;19;19949;-59
2022/07/30 02:31:27;;;;;;;;;;;;;;;-143.90;100.00;55099.31;3049801;19;19926;-59
2022/07/30 02:32:32;;;;;;;;;;;;;;;-143.90;100.00;55107.25;3046484;19;19919;-60
2022/07/30 02:33:35;;;;;;;;;;;;;;;-143.90;100.00;55095.34;3049056;19;19947;-59
2022/07/30 02:34:37;;;;;;;;;;;;;;;-143.90;100.00;55154.91;3047796;19;19925;-60
2022/07/30 02:35:37;;;;;;;;;;;;;;;-143.90;100.00;55150.94;3047507;19;19927;-60
2022/07/30 02:36:38;;;;;;;;;;;;;;;-143.90;100.00;55150.94;3050065;19;19915;-59
2022/07/30 02:37:39;;;;;;;;;;;;;;;-143.90;100.00;55103.28;3047600;19;19923;-59
2022/07/30 02:38:40;;;;;;;;;;;;;;;-143.90;100.00;55115.19;3048111;19;20332;-60
2022/07/30 02:39:42;;;;;;;;;;;;;;;-143.90;100.00;55135.03;3049541;19;19919;-60
2022/07/30 02:40:44;;;;;;;;;;;;;;;-143.90;100.00;55135.03;3044346;19;19919;-61
2022/07/30 02:41:45;;;;;;;;;;;;;;;-143.90;100.00;55107.25;3049952;19;20004;-60
2022/07/30 02:42:48;;;;;;;;;;;;;;;-143.90;100.00;55103.28;3046465;19;20008;-61
2022/07/30 02:43:52;;;;;;;;;;;;;;;-143.90;100.00;55127.09;3045046;19;19918;-60
2022/07/30 02:44:54;;;;;;;;;;;;;;;-143.90;100.00;55156.88;3049796;19;19922;-60
2022/07/30 02:45:55;;;;;;;;;;;;;;;-143.90;100.00;55111.22;3046542;19;20693;-60
2022/07/30 02:46:59;;;;;;;;;;;;;;;-143.90;100.00;55117.19;3047898;19;19976;-60
2022/07/30 02:48:05;;;;;;;;;;;;;;;-143.90;100.00;55143.00;3048338;19;19919;-59
2022/07/30 02:49:06;;;;;;;;;;;;;;;-143.90;100.00;55150.94;3049313;19;20376;-60
2022/07/30 02:50:08;;;;;;;;;;;;;;;-143.90;100.00;55131.06;3044761;19;20009;-60
2022/07/30 02:51:09;;;;;;;;;;;;;;;-143.90;100.00;55111.22;3047852;19;19922;-60
2022/07/30 02:52:14;;;;;;;;;;;;;;;-143.90;100.00;55111.22;3048523;19;19942;-60
2022/07/30 02:53:15;;;;;;;;;;;;;;;-143.90;100.00;55131.06;3047765;19;19975;-60
2022/07/30 02:54:16;;;;;;;;;;;;;;;-143.90;100.00;55131.06;3049259;19;20423;-60
2022/07/30 02:55:17;;;;;;;;;;;;;;;-143.90;100.00;55121.16;3046992;19;19952;-60
2022/07/30 02:56:19;;;;;;;;;;;;;;;-143.90;100.00;55111.22;3046807;19;19911;-60
2022/07/30 02:57:19;;;;;;;;;;;;;;;-143.90;100.00;55121.16;3048250;19;19926;-60
2022/07/30 02:58:21;;;;;;;;;;;;;;;-143.90;100.00;55109.22;3046039;19;19919;-60
2022/07/30 02:59:22;;;;;;;;;;;;;;;-143.90;100.00;55150.94;3048006;19;19927;-60
2022/07/30 03:00:23;;;;;;;;;;;;;;;-143.90;100.00;55141.00;3047712;19;19914;-60
2022/07/30 03:01:24;;;;;;;;;;;;;;;-143.90;100.00;55119.16;3048872;19;20141;-60
2022/07/30 03:02:24;;;;;;;;;;;;;;;-143.90;100.00;55083.41;3046663;19;20506;-61
2022/07/30 03:03:28;;;;;;;;;;;;;;;-143.90;100.00;55123.13;3046372;19;20691;-60
2022/07/30 03:04:30;;;;;;;;;;;;;;;-143.90;100.00;55125.13;3049429;19;20454;-60
2022/07/30 03:05:31;;;;;;;;;;;;;;;-143.90;100.00;55115.19;3046692;19;19915;-61
2022/07/30 03:06:34;;;;;;;;;;;;;;;-143.90;100.00;55095.34;3048281;19;19925;-60
2022/07/30 03:07:35;;;;;;;;;;;;;;;-143.90;100.00;55125.13;3048428;19;19918;-60
2022/07/30 03:08:36;;;;;;;;;;;;;;;-143.90;100.00;55125.13;3045299;19;20106;-60
2022/07/30 03:09:37;;;;;;;;;;;;;;;-143.90;100.00;55143.00;3045595;19;19962;-60
2022/07/30 03:10:38;;;;;;;;;;;;;;;-143.90;100.00;55083.41;3049099;19;19950;-60
2022/07/30 03:11:39;;;;;;;;;;;;;;;-143.90;100.00;55135.03;3046916;19;19919;-60
2022/07/30 03:12:40;;;;;;;;;;;;;;;-143.90;100.00;55109.22;3049860;19;19927;-60
2022/07/30 03:13:41;;;;;;;;;;;;;;;-143.90;100.00;55119.16;3045277;19;19933;-61
2022/07/30 03:14:43;;;;;;;;;;;;;;;-143.90;100.00;55158.88;3047515;19;19915;-60
2022/07/30 03:15:47;;;;;;;;;;;;;;;-143.90;100.00;55150.94;3049582;19;19915;-61
2022/07/30 03:16:50;;;;;;;;;;;;;;;-143.90;100.00;55101.28;3045156;19;19946;-60
2022/07/30 03:17:51;;;;;;;;;;;;;;;-143.90;100.00;55135.03;3048580;19;19930;-61
2022/07/30 03:18:52;;;;;;;;;;;;;;;-143.90;100.00;55123.13;3047678;19;19923;-60
2022/07/30 03:19:54;;;;;;;;;;;;;;;-143.90;100.00;55123.13;3048083;19;19915;-61
2022/07/30 03:20:55;;;;;;;;;;;;;;;-143.90;100.00;55127.09;3049017;19;19923;-59
2022/07/30 03:21:56;;;;;;;;;;;;;;;-143.90;100.00;55107.25;3046689;19;19931;-61
2022/07/30 03:22:58;;;;;;;;;;;;;;;-143.90;100.00;55150.94;3048563;19;19995;-61
2022/07/30 03:23:59;;;;;;;;;;;;;;;-143.90;100.00;55095.34;3047936;19;19926;-60
2022/07/30 03:25:00;;;;;;;;;;;;;;;-143.90;100.00;55146.97;3047124;19;19923;-61
2022/07/30 03:26:01;;;;;;;;;;;;;;;-143.90;100.00;55111.22;3048258;19;19958;-60
2022/07/30 03:27:02;;;;;;;;;;;;;;;-143.90;100.00;55111.22;3048275;19;19950;-61
2022/07/30 03:28:03;;;;;;;;;;;;;;;-143.90;100.00;55158.88;3045311;19;19919;-61
2022/07/30 03:29:05;;;;;;;;;;;;;;;-143.90;100.00;55115.19;3048540;19;19919;-60
2022/07/30 03:30:06;;;;;;;;;;;;;;;-143.90;100.00;55115.19;3046707;19;19943;-61
2022/07/30 03:31:09;;;;;;;;;;;;;;;-143.90;100.00;55119.16;3047423;19;20347;-61
2022/07/30 03:32:10;;;;;;;;;;;;;;;-143.90;100.00;55137.03;3046325;19;19929;-60
2022/07/30 03:33:11;;;;;;;;;;;;;;;-143.90;100.00;55123.13;3045711;19;20820;-61
2022/07/30 03:34:12;;;;;;;;;;;;;;;-143.90;100.00;55099.31;3049135;19;19919;-60
2022/07/30 03:35:12;;;;;;;;;;;;;;;-143.90;100.00;55135.03;3048045;19;20516;-60
2022/07/30 03:36:13;;;;;;;;;;;;;;;-143.90;100.00;55139.03;3045551;19;19923;-60
2022/07/30 03:37:14;;;;;;;;;;;;;;;-143.90;100.00;55127.09;3048494;19;19936;-61
2022/07/30 03:38:15;;;;;;;;;;;;;;;-143.90;100.00;55127.09;3048712;19;19926;-61
2022/07/30 03:39:17;;;;;;;;;;;;;;;-143.90;100.00;55103.28;3047953;19;19911;-61
2022/07/30 03:40:17;;;;;;;;;;;;;;;-143.90;100.00;55119.16;3046966;19;20019;-61
2022/07/30 03:41:18;;;;;;;;;;;;;;;-143.90;100.00;55127.09;3046406;19;19919;-60
2022/07/30 03:42:20;;;;;;;;;;;;;;;-143.90;100.00;55148.94;3047103;19;19930;-60
2022/07/30 03:43:21;;;;;;;;;;;;;;;-143.90;100.00;55129.09;3046411;19;19930;-61
2022/07/30 03:44:22;;;;;;;;;;;;;;;-143.90;100.00;55143.00;3045959;19;19915;-61
2022/07/30 03:45:23;;;;;;;;;;;;;;;-143.90;100.00;55095.34;3050354;19;20026;-60
2022/07/30 03:46:27;;;;;;;;;;;;;;;-143.90;100.00;55156.88;3050604;19;19986;-60
2022/07/30 03:47:29;;;;;;;;;;;;;;;-143.90;100.00;55174.75;3049301;19;19915;-60
2022/07/30 03:48:30;;;;;;;;;;;;;;;-143.90;100.00;55119.16;3050958;19;19914;-59
2022/07/30 03:49:31;;;;;;;;;;;;;;;-143.90;100.00;55150.94;3050454;19;19922;-60
2022/07/30 03:50:33;;;;;;;;;;;;;;;-143.90;100.00;55131.06;3051296;19;19919;-60
2022/07/30 03:51:35;;;;;;;;;;;;;;;-143.90;100.00;55131.06;3051476;19;20325;-60
2022/07/30 03:52:37;;;;;;;;;;;;;;;-143.90;100.00;55139.03;3048742;19;19919;-61
2022/07/30 03:53:39;;;;;;;;;;;;;;;-143.90;100.00;55097.31;3050005;19;19923;-60
2022/07/30 03:54:59;;;;;;;;;;;;;;;-143.90;100.00;55107.25;3052167;19;19951;-60
2022/07/30 03:56:25;;;;;;;;;;;;;;;-143.90;100.00;55131.06;3050378;19;19921;-60
2022/07/30 03:57:32;;;;;;;;;;;;;;;-143.90;100.00;55123.13;3050280;19;20360;-60
2022/07/30 03:58:33;;;;;;;;;;;;;;;-143.90;100.00;55137.03;3051686;19;19919;-60
2022/07/30 03:59:34;;;;;;;;;;;;;;;-143.90;100.00;55101.28;3049897;19;20284;-60
2022/07/30 04:00:35;;;;;;;;;;;;;;;-143.90;100.00;55103.28;3050479;19;19942;-60
2022/07/30 04:01:36;;;;;;;;;;;;;;;-143.90;100.00;55107.25;3049917;19;19926;-61
2022/07/30 04:02:44;;;;;;;;;;;;;;;-143.90;100.00;55123.13;3051025;19;19955;-61
2022/07/30 04:04:20;;;;;;;;;;;;;;;-143.90;100.00;55099.31;3050499;19;19918;-61
2022/07/30 04:05:22;;;;;;;;;;;;;;;-143.90;100.00;55162.84;3047932;19;19923;-60
2022/07/30 04:06:24;;;;;;;;;;;;;;;-143.90;100.00;55135.03;3049959;19;19970;-61
2022/07/30 04:07:25;;;;;;;;;;;;;;;-143.90;100.00;55101.28;3051198;19;20408;-60
2022/07/30 04:08:26;;;;;;;;;;;;;;;-143.90;100.00;55095.34;3049257;19;19926;-61
2022/07/30 04:09:27;;;;;;;;;;;;;;;-143.90;100.00;55123.13;3051157;19;19918;-61
2022/07/30 04:10:29;;;;;;;;;;;;;;;-143.90;100.00;55115.19;3048286;19;19919;-60
2022/07/30 04:11:49;;;;;;;;;;;;;;;-143.90;100.00;55071.50;3047471;19;19928;-61
2022/07/30 04:12:55;;;;;;;;;;;;;;;-143.90;100.00;55146.97;3048023;19;19923;-61
2022/07/30 04:13:57;;;;;;;;;;;;;;;-143.90;100.00;55107.25;3051776;19;20205;-60
2022/07/30 04:14:59;;;;;;;;;;;;;;;-143.90;100.00;55121.16;3049766;19;19951;-60
2022/07/30 04:16:03;;;;;;;;;;;;;;;-143.90;100.00;55141.00;3047614;19;19926;-61
2022/07/30 04:17:04;;;;;;;;;;;;;;;-143.90;100.00;55101.28;3051042;19;19922;-60
2022/07/30 04:18:05;;;;;;;;;;;;;;;-143.90;100.00;55107.25;3050946;19;19921;-60
2022/07/30 04:19:07;;;;;;;;;;;;;;;-143.90;100.00;55121.16;3049742;19;19915;-60
2022/07/30 04:20:12;;;;;;;;;;;;;;;-143.90;100.00;55115.19;3047321;19;19933;-60
2022/07/30 04:21:14;;;;;;;;;;;;;;;-143.90;100.00;55129.09;3050959;19;20846;-61
2022/07/30 04:22:15;;;;;;;;;;;;;;;-143.90;100.00;55119.16;3049629;19;19921;-60
2022/07/30 04:23:16;;;;;;;;;;;;;;;-143.90;100.00;55141.00;3051312;19;19930;-61
2022/07/30 04:24:18;;;;;;;;;;;;;;;-143.90;100.00;55107.25;3048970;19;19929;-60
2022/07/30 04:25:19;;;;;;;;;;;;;;;-143.90;100.00;55107.25;3049484;19;19978;-60
2022/07/30 04:26:20;;;;;;;;;;;;;;;-143.90;100.00;55150.94;3050456;19;20466;-61
2022/07/30 04:27:24;;;;;;;;;;;;;;;-143.90;100.00;55103.28;3048023;19;20358;-61
2022/07/30 04:28:25;;;;;;;;;;;;;;;-143.90;100.00;55095.34;3051760;19;19915;-60
2022/07/30 04:29:26;;;;;;;;;;;;;;;-143.90;100.00;55079.44;3048700;19;20034;-60
2022/07/30 04:30:28;;;;;;;;;;;;;;;-143.90;100.00;55131.06;3050125;19;19982;-60
2022/07/30 04:31:34;;;;;;;;;;;;;;;-143.90;100.00;55095.34;3049312;19;19914;-60
2022/07/30 04:32:39;;;;;;;;;;;;;;;-143.90;100.00;55139.03;3047919;19;19915;-60
2022/07/30 04:33:58;;;;;;;;;;;;;;;-143.91;100.00;64079.06;3049863;19;19929;-60
2022/07/30 04:35:09;;;;;;;;;;;;;;;-143.91;100.00;64079.06;3049867;19;19929;-61
2022/07/30 04:36:31;;;;;;;;;;;;;;;-143.91;100.00;64079.06;3051208;19;19948;-59
2022/07/30 04:37:32;;;;;;;;;;;;;;;-143.91;100.00;64079.06;3047768;19;19925;-61
2022/07/30 04:38:33;;;;;;;;;;;;;;;-143.91;100.00;64079.06;3049127;19;19924;-60
2022/07/30 04:39:34;;;;;;;;;;;;;;;-143.91;100.00;64079.06;3051169;19;19918;-61
2022/07/30 04:40:34;;;;;;;;;;;;;;;-143.91;100.00;64079.06;3047582;19;20254;-61
2022/07/30 04:41:35;;;;;;;;;;;;;;;-143.91;100.00;64079.06;3049045;19;19939;-61
2022/07/30 04:42:55;;;;;;;;;;;;;;;-143.91;100.00;64079.06;3051323;19;19986;-60
2022/07/30 04:43:56;;;;;;;;;;;;;;;-143.91;100.00;64079.06;3048920;19;20816;-60
2022/07/30 04:44:57;;;;;;;;;;;;;;;-143.91;100.00;64079.06;3049690;19;19922;-61
2022/07/30 04:46:01;;;;;;;;;;;;;;;-143.91;100.00;64079.06;3050426;19;19922;-60
2022/07/30 04:47:02;;;;;;;;;;;;;;;-143.91;100.00;64079.06;3048924;19;19922;-61
2022/07/30 04:48:04;;;;;;;;;;;;;;;-143.91;100.00;64079.06;3049020;19;21111;-61
2022/07/30 04:49:23;;;;;;;;;;;;;;;-143.91;100.00;64079.06;3050112;19;20448;-60
2022/07/30 04:50:25;;;;;;;;;;;;;;;-143.91;100.00;64079.06;3047870;19;19950;-61
2022/07/30 04:51:27;;;;;;;;;;;;;;;-143.91;100.00;64079.06;3048195;19;20794;-61
2022/07/30 04:52:28;;;;;;;;;;;;;;;-143.91;100.00;64079.06;3049304;19;19919;-62
2022/07/30 04:53:30;;;;;;;;;;;;;;;-143.91;100.00;64079.06;3049730;19;20010;-61
2022/07/30 04:54:37;;;;;;;;;;;;;;;-143.91;100.00;64079.06;3049378;19;20790;-60
2022/07/30 04:55:39;;;;;;;;;;;;;;;-143.91;100.00;64079.06;3049912;19;20363;-60
2022/07/30 04:56:40;;;;;;;;;;;;;;;-143.91;100.00;64079.06;3049045;19;20466;-60
2022/07/30 04:57:41;;;;;;;;;;;;;;;-143.91;100.00;64079.06;3049891;19;19973;-60
2022/07/30 04:58:42;;;;;;;;;;;;;;;-143.91;100.00;64079.06;3048388;19;19931;-60
2022/07/30 04:59:44;;;;;;;;;;;;;;;-143.91;100.00;64079.06;3049035;19;20006;-61
2022/07/30 05:00:45;;;;;;;;;;;;;;;-143.91;100.00;64079.06;3049990;19;19922;-60
2022/07/30 05:01:49;;;;;;;;;;;;;;;-143.91;100.00;64079.06;3046276;19;20030;-61
2022/07/30 05:02:50;;;;;;;;;;;;;;;-143.91;100.00;64079.06;3050444;19;20462;-60
2022/07/30 05:03:51;;;;;;;;;;;;;;;-143.91;100.00;64079.06;3046722;19;19915;-60
2022/07/30 05:04:52;;;;;;;;;;;;;;;-143.91;100.00;64079.06;3047575;19;19995;-61
2022/07/30 05:05:54;;;;;;;;;;;;;;;-143.91;100.00;64079.06;3050404;19;19936;-60
2022/07/30 05:06:56;;;;;;;;;;;;;;;-143.91;100.00;64079.06;3048264;19;19998;-61
2022/07/30 05:07:56;;;;;;;;;;;;;;;-143.91;100.00;64079.06;3050413;19;19923;-60
2022/07/30 05:08:57;;;;;;;;;;;;;;;-143.91;100.00;64079.06;3049244;19;19927;-61
2022/07/30 05:09:58;;;;;;;;;;;;;;;-143.91;100.00;64079.06;3048364;19;19918;-61
2022/07/30 05:10:59;;;;;;;;;;;;;;;-143.91;100.00;64079.06;3049951;19;20287;-60
2022/07/30 05:12:00;;;;;;;;;;;;;;;-143.91;100.00;64079.06;3047938;19;19914;-60
2022/07/30 05:13:01;;;;;;;;;;;;;;;-143.91;100.00;64079.06;3049191;19;19926;-61
2022/07/30 05:14:01;;;;;;;;;;;;;;;-143.91;100.00;64079.06;3050680;19;19925;-61
2022/07/30 05:15:03;;;;;;;;;;;;;;;-143.91;100.00;64079.06;3047261;19;20570;-60
2022/07/30 05:16:04;;;;;;;;;;;;;;;-143.91;100.00;64079.06;3047894;19;19942;-61